Time;durP1;ratioP1;P1;durP2;ratioP2;P2;SDS_P1;SDS_P2;PMS_P1;PMS_P2;Temp;Humidity;BMP_temperature;BMP_pressure;BME280_temperature;BME280_humidity;BME280_pressure;Samples;Min_cycle;Max_cycle;Signal;HPM_P1;HPM_P2
2023/11/30 00:02:14;;;;;;;42.60;21.13;;;8.20;99.90;;;;;;7379984;19;20414;-74
2023/11/30 00:04:43;;;;;;;38.60;19.65;;;8.20;99.90;;;;;;7378677;19;20007;-74
2023/11/30 00:07:14;;;;;;;40.00;18.00;;;8.20;99.90;;;;;;7380557;19;20037;-73
2023/11/30 00:09:43;;;;;;;41.17;19.33;;;8.10;99.90;;;;;;7399101;19;20395;-73
2023/11/30 00:12:11;;;;;;;40.17;18.23;;;8.10;99.90;;;;;;7381596;19;20018;-74
2023/11/30 00:14:40;;;;;;;41.42;18.42;;;8.20;99.90;;;;;;7377368;19;20422;-73
2023/11/30 00:17:09;;;;;;;49.25;18.70;;;8.20;99.90;;;;;;7380088;19;20007;-72
2023/11/30 00:19:39;;;;;;;39.38;18.98;;;8.20;99.90;;;;;;7379682;19;20078;-73
2023/11/30 00:22:07;;;;;;;33.72;17.60;;;8.20;99.90;;;;;;7377519;19;20472;-73
2023/11/30 00:24:39;;;;;;;43.33;20.05;;;8.20;99.90;;;;;;7399874;19;20007;-74
2023/11/30 00:27:07;;;;;;;38.50;18.63;;;8.20;99.90;;;;;;7377652;19;20019;-72
2023/11/30 00:29:39;;;;;;;41.95;19.77;;;8.20;99.90;;;;;;7379848;19;20058;-74
2023/11/30 00:32:10;;;;;;;37.97;18.63;;;8.20;99.90;;;;;;7378419;19;20010;-74
2023/11/30 00:34:38;;;;;;;37.55;19.10;;;8.30;99.90;;;;;;7377306;19;20301;-73
2023/11/30 00:37:07;;;;;;;36.30;18.88;;;8.30;99.90;;;;;;7377379;19;20020;-74
2023/11/30 00:39:38;;;;;;;36.42;19.38;;;8.30;99.90;;;;;;7399196;19;20112;-73
2023/11/30 00:42:08;;;;;;;44.92;19.30;;;8.30;99.90;;;;;;7378909;19;20063;-73
2023/11/30 00:44:37;;;;;;;40.53;20.10;;;8.30;99.90;;;;;;7377168;19;20010;-73
2023/11/30 00:47:09;;;;;;;48.25;19.55;;;8.30;99.90;;;;;;7378925;19;20018;-72
2023/11/30 00:49:37;;;;;;;46.10;18.27;;;8.30;99.90;;;;;;7385108;19;20305;-74
2023/11/30 00:52:07;;;;;;;35.28;19.08;;;8.30;99.90;;;;;;7382438;19;20006;-73
2023/11/30 00:54:38;;;;;;;42.92;20.58;;;8.30;99.90;;;;;;7405593;19;20011;-74
2023/11/30 00:57:07;;;;;;;41.17;20.33;;;8.30;99.90;;;;;;7383490;19;20006;-74
2023/11/30 00:59:36;;;;;;;37.95;19.70;;;8.30;99.90;;;;;;7384185;19;20075;-74
2023/11/30 01:02:04;;;;;;;42.92;20.20;;;8.20;99.90;;;;;;7385424;19;20082;-74
2023/11/30 01:04:33;;;;;;;36.75;20.52;;;8.20;99.90;;;;;;7381957;19;20011;-73
2023/11/30 01:07:02;;;;;;;45.15;20.70;;;8.20;99.90;;;;;;7385811;19;20371;-73
2023/11/30 01:09:31;;;;;;;40.55;20.10;;;8.20;99.90;;;;;;7405235;19;20007;-74
2023/11/30 01:12:02;;;;;;;40.38;21.27;;;8.20;99.90;;;;;;7383258;19;20006;-74
2023/11/30 01:14:32;;;;;;;42.17;20.75;;;8.20;99.90;;;;;;7383516;19;20015;-74
2023/11/30 01:17:00;;;;;;;47.58;20.65;;;8.20;99.90;;;;;;7383551;19;20066;-73
2023/11/30 01:19:41;;;;;;;51.35;22.50;;;8.10;99.90;;;;;;7381635;19;20309;-74
2023/11/30 01:22:10;;;;;;;50.13;21.42;;;8.10;99.90;;;;;;7383633;19;20010;-74
2023/11/30 01:24:39;;;;;;;52.38;21.25;;;8.10;99.90;;;;;;7407841;19;20007;-74
2023/11/30 01:27:10;;;;;;;43.03;20.38;;;8.00;99.90;;;;;;7383101;19;20058;-73
2023/11/30 01:29:39;;;;;;;37.80;18.50;;;8.00;99.90;;;;;;7383252;19;20018;-74
2023/11/30 01:32:08;;;;;;;47.80;18.80;;;8.00;99.90;;;;;;7384345;19;20327;-74
2023/11/30 01:34:38;;;;;;;34.60;18.83;;;7.90;99.90;;;;;;7382950;19;20024;-73
2023/11/30 01:37:07;;;;;;;35.85;19.52;;;8.00;99.90;;;;;;7381004;19;20002;-73
2023/11/30 01:39:36;;;;;;;38.45;18.25;;;8.00;99.90;;;;;;7409697;19;20019;-73
2023/11/30 01:42:05;;;;;;;37.60;17.58;;;8.00;99.90;;;;;;7386813;19;20082;-73
2023/11/30 01:44:36;;;;;;;38.20;17.90;;;8.00;99.90;;;;;;7382996;19;20071;-74
2023/11/30 01:47:05;;;;;;;42.33;18.52;;;7.90;99.90;;;;;;7382871;19;20081;-74
2023/11/30 01:49:35;;;;;;;53.38;21.05;;;7.90;99.90;;;;;;7383070;19;20015;-74
2023/11/30 01:52:05;;;;;;;45.25;20.38;;;7.90;99.90;;;;;;7380903;19;20011;-73
2023/11/30 01:54:34;;;;;;;42.33;19.02;;;7.90;99.90;;;;;;7404463;19;20003;-74
2023/11/30 01:57:03;;;;;;;37.75;18.35;;;7.80;99.90;;;;;;7382335;19;20174;-73
2023/11/30 01:59:33;;;;;;;39.22;19.30;;;7.80;99.90;;;;;;7383597;19;20074;-75
2023/11/30 02:02:05;;;;;;;50.83;20.83;;;7.70;99.90;;;;;;7391147;19;20031;-75
2023/11/30 02:04:35;;;;;;;;;;;7.70;99.90;;;;;;7389402;19;20162;-74
2023/11/30 02:07:05;;;;;;;34.80;17.83;;;7.70;99.90;;;;;;7387308;19;19983;-74
2023/11/30 02:09:34;;;;;;;33.35;17.67;;;7.70;99.90;;;;;;7409491;19;20015;-74
2023/11/30 02:12:03;;;;;;;38.60;17.83;;;7.70;99.90;;;;;;7382655;19;20377;-74
2023/11/30 02:14:34;;;;;;;35.10;18.50;;;7.70;99.90;;;;;;7382764;19;20003;-74
2023/11/30 02:17:07;;;;;;;33.15;18.30;;;7.70;99.90;;;;;;7382411;19;20007;-74
2023/11/30 02:19:39;;;;;;;43.75;18.00;;;7.70;99.90;;;;;;7381921;19;20007;-74
2023/11/30 02:22:10;;;;;;;43.60;18.52;;;7.70;99.90;;;;;;7381797;19;20010;-73
2023/11/30 02:24:39;;;;;;;129.88;23.35;;;7.70;99.90;;;;;;7403623;19;20059;-73
2023/11/30 02:27:09;;;;;;;47.95;18.15;;;7.70;99.90;;;;;;7380989;19;20007;-73
2023/11/30 02:29:38;;;;;;;39.92;18.90;;;7.60;99.90;;;;;;7381338;19;20002;-73
2023/11/30 02:32:07;;;;;;;31.55;16.10;;;7.60;99.90;;;;;;7383653;19;20089;-74
2023/11/30 02:34:36;;;;;;;42.92;17.95;;;7.60;99.90;;;;;;7381506;19;20433;-74
2023/11/30 02:37:05;;;;;;;35.45;16.92;;;7.60;99.90;;;;;;7381004;19;20449;-74
2023/11/30 02:39:36;;;;;;;39.45;16.88;;;7.60;99.90;;;;;;7402522;19;20059;-73
2023/11/30 02:42:05;;;;;;;35.83;17.00;;;7.60;99.90;;;;;;7381262;19;20010;-74
2023/11/30 02:44:33;;;;;;;50.83;16.83;;;7.60;99.90;;;;;;7381280;19;20003;-73
2023/11/30 02:47:02;;;;;;;34.38;16.73;;;7.60;99.90;;;;;;7380672;19;20006;-73
2023/11/30 02:49:31;;;;;;;38.65;16.42;;;7.70;99.90;;;;;;7381744;19;20275;-73
2023/11/30 02:52:02;;;;;;;33.20;17.25;;;7.70;99.90;;;;;;7378549;19;20075;-72
2023/11/30 02:54:30;;;;;;;44.92;17.88;;;7.60;99.90;;;;;;7402306;19;20077;-74
2023/11/30 02:57:02;;;;;;;32.15;16.20;;;7.60;99.90;;;;;;7380066;19;20002;-74
2023/11/30 02:59:30;;;;;;;31.58;16.45;;;7.60;99.90;;;;;;7380095;19;19999;-74
2023/11/30 03:01:59;;;;;;;33.42;16.73;;;7.60;99.90;;;;;;7382915;19;20315;-74
2023/11/30 03:04:28;;;;;;;32.60;15.45;;;7.60;99.90;;;;;;7380070;19;20066;-73
2023/11/30 03:06:56;;;;;;;41.97;16.30;;;7.60;99.90;;;;;;7383432;19;20082;-73
2023/11/30 03:09:25;;;;;;;35.83;17.05;;;7.60;99.90;;;;;;7400906;19;20360;-73
2023/11/30 03:11:54;;;;;;;30.42;16.50;;;7.50;99.90;;;;;;7377614;19;20062;-72
2023/11/30 03:14:25;;;;;;;39.28;16.33;;;7.60;99.90;;;;;;7379654;19;20070;-73
2023/11/30 03:16:54;;;;;;;45.10;18.08;;;7.50;99.90;;;;;;7379137;19;20306;-72
2023/11/30 03:19:22;;;;;;;41.50;17.17;;;7.50;99.90;;;;;;7379984;19;20015;-73
2023/11/30 03:21:52;;;;;;;31.67;15.48;;;7.50;99.90;;;;;;7394288;19;20288;-73
2023/11/30 03:24:21;;;;;;;28.52;14.88;;;7.50;99.90;;;;;;7404735;19;20003;-73
2023/11/30 03:26:49;;;;;;;33.30;15.65;;;7.50;99.90;;;;;;7379107;19;20010;-73
2023/11/30 03:29:18;;;;;;;35.92;15.35;;;7.60;99.90;;;;;;7380236;19;20006;-73
2023/11/30 03:31:50;;;;;;;31.45;15.75;;;7.60;99.90;;;;;;7380586;19;20062;-73
2023/11/30 03:34:18;;;;;;;28.75;15.32;;;7.60;99.90;;;;;;7379964;19;20085;-73
2023/11/30 03:36:47;;;;;;;27.95;15.20;;;7.60;99.90;;;;;;7401252;19;20026;-72
2023/11/30 03:39:16;;;;;;;35.28;14.60;;;7.60;99.90;;;;;;7378947;19;19998;-73
2023/11/30 03:41:44;;;;;;;29.10;15.68;;;7.60;99.90;;;;;;7378271;19;20082;-73
2023/11/30 03:44:13;;;;;;;27.90;15.52;;;7.60;99.90;;;;;;7379280;19;20004;-72
2023/11/30 03:46:42;;;;;;;24.98;14.38;;;7.60;99.90;;;;;;7379069;19;20421;-73
2023/11/30 03:49:13;;;;;;;37.25;15.43;;;7.60;99.90;;;;;;7379364;19;20014;-73
2023/11/30 03:51:42;;;;;;;27.00;14.23;;;7.60;99.90;;;;;;7399745;19;20018;-73
2023/11/30 03:54:10;;;;;;;27.17;13.90;;;7.60;99.90;;;;;;7377716;19;20274;-72
2023/11/30 03:56:39;;;;;;;36.47;16.02;;;7.60;99.90;;;;;;7379029;19;20023;-72
2023/11/30 03:59:08;;;;;;;32.05;16.35;;;7.60;99.90;;;;;;7378318;19;20260;-72
2023/11/30 04:01:37;;;;;;;34.13;17.13;;;7.60;99.90;;;;;;7380529;19;20056;-72
2023/11/30 04:04:07;;;;;;;34.17;17.90;;;7.60;99.90;;;;;;7378378;19;20075;-73
2023/11/30 04:06:39;;;;;;;46.85;18.67;;;7.60;99.90;;;;;;7400451;19;20063;-72
2023/11/30 04:09:08;;;;;;;34.33;16.52;;;7.60;99.90;;;;;;7377807;19;20085;-73
2023/11/30 04:11:39;;;;;;;36.08;16.95;;;7.50;99.90;;;;;;7376880;19;20113;-73
2023/11/30 04:14:09;;;;;;;35.03;16.90;;;7.50;99.90;;;;;;7378909;19;20017;-73
2023/11/30 04:16:37;;;;;;;28.63;16.02;;;7.50;99.90;;;;;;7379384;19;20011;-73
2023/11/30 04:19:06;;;;;;;44.60;17.80;;;7.50;99.90;;;;;;7382090;19;20010;-72
2023/11/30 04:21:35;;;;;;;34.90;17.15;;;7.50;99.90;;;;;;7403269;19;20111;-73
2023/11/30 04:24:06;;;;;;;28.92;14.82;;;7.60;99.90;;;;;;7389148;19;20006;-73
2023/11/30 04:26:36;;;;;;;31.90;15.52;;;7.50;99.90;;;;;;7390356;19;20007;-73
2023/11/30 04:29:06;;;;;;;39.60;16.58;;;7.60;99.90;;;;;;7385708;19;20014;-73
2023/11/30 04:31:35;;;;;;;35.58;17.38;;;7.60;99.90;;;;;;7384440;19;20065;-73
2023/11/30 04:34:03;;;;;;;36.78;17.13;;;7.60;99.90;;;;;;7385591;19;20024;-73
2023/11/30 04:36:32;;;;;;;35.97;18.05;;;7.60;99.90;;;;;;7406677;19;20006;-74
2023/11/30 04:39:01;;;;;;;31.48;17.17;;;7.60;99.90;;;;;;7384140;19;20074;-73
2023/11/30 04:41:32;;;;;;;40.08;17.33;;;7.50;99.90;;;;;;7385093;19;20036;-74
2023/11/30 04:44:00;;;;;;;30.85;15.40;;;7.60;99.90;;;;;;7384771;19;19999;-73
2023/11/30 04:46:29;;;;;;;32.17;15.00;;;7.50;99.90;;;;;;7384195;19;20275;-74
2023/11/30 04:48:59;;;;;;;31.17;16.27;;;7.60;99.90;;;;;;7388113;19;20007;-73
2023/11/30 04:51:28;;;;;;;38.50;16.67;;;7.60;99.90;;;;;;7404360;19;20074;-73
2023/11/30 04:53:57;;;;;;;32.28;15.32;;;7.60;99.90;;;;;;7383646;19;20003;-73
2023/11/30 04:56:26;;;;;;;30.92;16.30;;;7.60;99.90;;;;;;7384207;19;20003;-74
2023/11/30 04:58:58;;;;;;;28.65;15.85;;;7.60;99.90;;;;;;7384461;19;20011;-74
2023/11/30 05:01:28;;;;;;;29.00;16.00;;;7.60;99.90;;;;;;7388047;19;20057;-75
2023/11/30 05:03:57;;;;;;;30.67;15.82;;;7.60;99.90;;;;;;7384059;19;20010;-74
2023/11/30 05:06:27;;;;;;;34.00;15.32;;;7.60;99.90;;;;;;7410204;19;19999;-74
2023/11/30 05:08:55;;;;;;;30.33;15.82;;;7.60;99.90;;;;;;7383734;19;20246;-74
2023/11/30 05:11:24;;;;;;;33.22;15.15;;;7.60;99.90;;;;;;7383305;19;20010;-74
2023/11/30 05:13:53;;;;;;;34.17;15.75;;;7.60;99.90;;;;;;7384070;19;20023;-74
2023/11/30 05:16:24;;;;;;;33.03;15.93;;;7.60;99.90;;;;;;7381180;19;20070;-74
2023/11/30 05:18:53;;;;;;;32.17;16.55;;;7.50;99.90;;;;;;7383840;19;20067;-73
2023/11/30 05:21:22;;;;;;;31.17;14.65;;;7.50;99.90;;;;;;7405404;19;20097;-73
2023/11/30 05:23:51;;;;;;;35.22;15.43;;;7.50;99.90;;;;;;7385690;19;20385;-73
2023/11/30 05:26:19;;;;;;;27.63;12.85;;;7.40;99.90;;;;;;7382780;19;20346;-73
2023/11/30 05:28:48;;;;;;;31.05;13.38;;;7.40;99.90;;;;;;7383716;19;20013;-72
2023/11/30 05:31:17;;;;;;;25.80;13.52;;;7.40;99.90;;;;;;7381637;19;20413;-73
2023/11/30 05:33:50;;;;;;;41.13;14.85;;;7.40;99.90;;;;;;7401376;19;20006;-73
2023/11/30 05:36:19;;;;;;;39.95;15.18;;;7.40;99.90;;;;;;7382176;19;20734;-73
2023/11/30 05:38:47;;;;;;;35.50;15.30;;;7.40;99.90;;;;;;7383564;19;20003;-73
2023/11/30 05:41:16;;;;;;;35.00;15.35;;;7.40;99.90;;;;;;7383069;19;20002;-74
2023/11/30 05:43:47;;;;;;;30.23;14.57;;;7.40;99.90;;;;;;7382724;19;20381;-74
2023/11/30 05:46:16;;;;;;;36.13;16.33;;;7.40;99.90;;;;;;7382452;19;20007;-72
2023/11/30 05:48:45;;;;;;;27.90;15.70;;;7.40;99.90;;;;;;7404266;19;20027;-74
2023/11/30 05:51:16;;;;;;;33.22;16.05;;;7.30;99.90;;;;;;7380240;19;20010;-74
2023/11/30 05:53:45;;;;;;;36.60;15.32;;;7.30;99.90;;;;;;7381682;19;20548;-73
2023/11/30 05:56:13;;;;;;;28.88;15.00;;;7.30;99.90;;;;;;7384780;19;20003;-74
2023/11/30 05:58:43;;;;;;;28.98;15.20;;;7.30;99.90;;;;;;7382468;19;20006;-74
2023/11/30 06:01:11;;;;;;;31.20;15.30;;;7.30;99.90;;;;;;7381800;19;20015;-74
2023/11/30 06:03:41;;;;;;;35.00;15.02;;;7.30;99.90;;;;;;7407134;19;20266;-74
2023/11/30 06:06:11;;;;;;;29.08;15.43;;;7.30;99.90;;;;;;7380989;19;20017;-74
2023/11/30 06:08:42;;;;;;;24.52;15.13;;;7.30;99.90;;;;;;7381271;19;20504;-73
2023/11/30 06:11:11;;;;;;;;;;;7.30;99.90;;;;;;7382422;19;20003;-73
2023/11/30 06:13:39;;;;;;;23.20;12.75;;;7.30;99.90;;;;;;7383407;19;19907;-73
2023/11/30 06:16:11;;;;;;;28.13;14.32;;;7.30;99.90;;;;;;7381280;19;20366;-72
2023/11/30 06:18:39;;;;;;;;;;;7.30;99.90;;;;;;7404137;19;20003;-72
2023/11/30 06:21:10;;;;;;;27.58;13.48;;;7.30;99.90;;;;;;7380938;19;20309;-73
2023/11/30 06:23:42;;;;;;;27.77;13.93;;;7.30;99.90;;;;;;7380982;19;20366;-73
2023/11/30 06:26:11;;;;;;;35.33;15.25;;;7.30;99.90;;;;;;7381645;19;20354;-73
2023/11/30 06:28:40;;;;;;;33.13;15.32;;;7.30;99.90;;;;;;7381764;19;20003;-73
2023/11/30 06:31:09;;;;;;;36.25;14.13;;;7.30;99.90;;;;;;7386076;19;20011;-73
2023/11/30 06:33:38;;;;;;;31.15;13.57;;;7.30;99.90;;;;;;7406961;19;20058;-73
2023/11/30 06:36:08;;;;;;;33.17;14.85;;;7.40;99.90;;;;;;7385330;19;20017;-74
2023/11/30 06:38:44;;;;;;;23.15;13.70;;;7.40;99.90;;;;;;7386009;19;20382;-73
2023/11/30 06:41:15;;;;;;;32.92;14.07;;;7.40;99.90;;;;;;7385803;19;20002;-74
2023/11/30 06:43:44;;;;;;;30.52;15.35;;;7.50;99.90;;;;;;7382828;19;20077;-73
2023/11/30 06:46:20;;;;;;;32.97;13.73;;;7.50;99.90;;;;;;7380370;19;20018;-74
2023/11/30 06:48:50;;;;;;;26.58;14.73;;;7.40;99.90;;;;;;7402595;19;20074;-74
2023/11/30 06:51:19;;;;;;;33.50;15.50;;;7.50;99.90;;;;;;7379047;19;20063;-73
2023/11/30 06:53:48;;;;;;;26.88;14.90;;;7.40;99.90;;;;;;7380235;19;20006;-73
2023/11/30 06:56:19;;;;;;;30.20;15.25;;;7.40;99.90;;;;;;7379597;19;19999;-72
2023/11/30 06:58:49;;;;;;;31.92;14.15;;;7.40;99.90;;;;;;7380884;19;20007;-73
2023/11/30 07:01:19;;;;;;;34.83;13.55;;;7.40;99.90;;;;;;7381172;19;20006;-74
2023/11/30 07:03:48;;;;;;;29.27;15.32;;;7.40;99.90;;;;;;7406042;19;20066;-73
2023/11/30 07:06:16;;;;;;;32.08;14.10;;;7.50;99.90;;;;;;7380138;19;20006;-74
2023/11/30 07:08:45;;;;;;;29.45;14.52;;;7.50;99.90;;;;;;7379698;19;20385;-74
2023/11/30 07:11:17;;;;;;;35.95;15.90;;;7.50;99.90;;;;;;7381052;19;20013;-73
2023/11/30 07:13:48;;;;;;;37.05;14.38;;;7.50;99.90;;;;;;7379759;19;20007;-74
2023/11/30 07:16:16;;;;;;;32.97;14.95;;;7.50;99.90;;;;;;7382355;19;20019;-74
2023/11/30 07:18:45;;;;;;;25.70;14.25;;;7.50;99.90;;;;;;7400982;19;20358;-73
2023/11/30 07:21:17;;;;;;;22.80;12.73;;;7.50;99.90;;;;;;7381247;19;20010;-74
2023/11/30 07:23:46;;;;;;;31.98;13.70;;;7.50;99.90;;;;;;7378943;19;20019;-73
2023/11/30 07:26:16;;;;;;;29.63;14.70;;;7.50;99.90;;;;;;7378904;19;20106;-73
2023/11/30 07:28:47;;;;;;;34.58;16.02;;;7.50;99.90;;;;;;7380012;19;20010;-73
2023/11/30 07:31:19;;;;;;;;;;;7.50;99.90;;;;;;7380272;19;20027;-73
2023/11/30 07:33:48;;;;;;;28.95;14.68;;;7.50;99.90;;;;;;7399399;19;19967;-73
2023/11/30 07:36:17;;;;;;;32.08;15.15;;;7.50;99.90;;;;;;7378869;19;20266;-73
2023/11/30 07:38:46;;;;;;;42.60;17.55;;;7.40;99.90;;;;;;7381870;19;20083;-73
2023/11/30 07:41:17;;;;;;;35.28;16.30;;;7.40;99.90;;;;;;7379133;19;20006;-73
2023/11/30 07:43:49;;;;;;;33.50;17.17;;;7.40;99.90;;;;;;7379631;19;20365;-73
2023/11/30 07:46:20;;;;;;;43.50;18.08;;;7.40;99.90;;;;;;7379202;19;20050;-72
2023/11/30 07:48:48;;;;;;;36.25;16.10;;;7.40;99.90;;;;;;7401120;19;20015;-73
2023/11/30 07:51:17;;;;;;;36.10;15.85;;;7.40;99.90;;;;;;7377751;19;20105;-73
2023/11/30 07:53:49;;;;;;;36.60;17.38;;;7.40;99.90;;;;;;7381578;19;20011;-78
2023/11/30 07:56:20;;;;;;;34.15;16.33;;;7.40;99.90;;;;;;7381886;19;20066;-76
2023/11/30 07:58:51;;;;;;;36.07;16.80;;;7.40;99.90;;;;;;7380297;19;20016;-77
2023/11/30 08:01:20;;;;;;;;;;;7.30;99.90;;;;;;7379474;19;20042;-76
2023/11/30 08:03:48;;;;;;;36.42;14.80;;;7.40;99.90;;;;;;7402745;19;19927;-75
2023/11/30 08:06:19;;;;;;;23.42;11.85;;;7.30;99.90;;;;;;7382800;19;20007;-77
2023/11/30 08:08:47;;;;;;;22.02;12.38;;;7.30;99.90;;;;;;7378438;19;20358;-75
2023/11/30 08:11:16;;;;;;;22.95;10.88;;;7.30;99.90;;;;;;7379348;19;20031;-75
2023/11/30 08:13:45;;;;;;;28.77;11.85;;;7.30;99.90;;;;;;7380000;19;20253;-76
2023/11/30 08:16:16;;;;;;;33.38;16.50;;;7.30;99.90;;;;;;7380632;19;20022;-77
2023/11/30 08:18:45;;;;;;;;;;;7.30;99.90;;;;;;7406712;19;20039;-76
2023/11/30 08:21:16;;;;;;;31.77;16.25;;;7.40;99.90;;;;;;7379882;19;19910;-78
2023/11/30 08:23:48;;;;;;;32.72;15.73;;;7.30;99.90;;;;;;7381332;19;20077;-79
2023/11/30 08:26:19;;;;;;;31.63;16.35;;;7.30;99.90;;;;;;7385737;19;20032;-78
2023/11/30 08:35:06;;;;;;;30.08;15.02;;;7.30;99.90;;;;;;7385551;19;20360;-77
2023/11/30 08:37:35;;;;;;;33.93;16.10;;;7.30;99.90;;;;;;7386015;19;20023;-78
2023/11/30 08:40:04;;;;;;;31.23;15.98;;;7.40;99.90;;;;;;7382379;19;20280;-78
2023/11/30 08:42:35;;;;;;;34.95;16.25;;;7.40;99.90;;;;;;7401572;19;20017;-78
2023/11/30 08:45:04;;;;;;;43.17;15.75;;;7.40;99.90;;;;;;7382096;19;20017;-75
2023/11/30 08:47:35;;;;;;;32.45;15.85;;;7.40;99.90;;;;;;7381734;19;20088;-75
2023/11/30 08:50:05;;;;;;;;;;;7.40;99.90;;;;;;7379341;19;20006;-77
2023/11/30 08:52:34;;;;;;;31.85;13.65;;;7.50;99.90;;;;;;7376082;19;20019;-74
2023/11/30 08:55:04;;;;;;;30.10;14.75;;;7.50;99.90;;;;;;7379408;19;20074;-74
2023/11/30 08:57:33;;;;;;;28.00;13.25;;;7.50;99.90;;;;;;7404463;19;20027;-76
2023/11/30 09:00:05;;;;;;;26.52;13.98;;;7.60;99.90;;;;;;7382529;19;20050;-75
2023/11/30 09:24:06;;;;;;;25.73;12.63;;;7.80;99.90;;;;;;7387850;19;20252;-80
2023/11/30 09:36:17;;;;;;;32.42;12.45;;;8.00;99.90;;;;;;7386002;19;20227;-78
2023/11/30 09:38:49;;;;;;;34.83;12.70;;;8.10;99.90;;;;;;7389599;19;20002;-78
2023/11/30 09:41:22;;;;;;;19.90;11.40;;;8.10;99.90;;;;;;7389246;19;20006;-77
2023/11/30 09:43:52;;;;;;;21.23;11.20;;;8.20;99.90;;;;;;7381643;19;20025;-76
2023/11/30 09:46:24;;;;;;;24.77;10.75;;;8.20;99.90;;;;;;7385782;19;20066;-77
2023/11/30 09:48:53;;;;;;;23.45;10.88;;;8.30;99.90;;;;;;7385814;19;20035;-78
2023/11/30 09:51:24;;;;;;;20.05;10.20;;;8.30;99.90;;;;;;7403654;19;20007;-77
2023/11/30 09:53:55;;;;;;;21.75;10.85;;;8.40;99.90;;;;;;7385496;19;19998;-77
2023/11/30 09:56:44;;;;;;;19.50;10.07;;;8.40;99.90;;;;;;7384815;19;20070;-79
2023/11/30 09:59:14;;;;;;;21.08;10.57;;;8.50;99.90;;;;;;7384296;19;20011;-78
2023/11/30 10:01:43;;;;;;;24.35;11.15;;;8.50;99.90;;;;;;7383339;19;20017;-78
2023/11/30 10:04:35;;;;;;;24.40;10.95;;;8.60;99.90;;;;;;7384051;19;20010;-79
2023/11/30 10:07:06;;;;;;;19.05;11.00;;;8.60;99.90;;;;;;7384615;19;20019;-79
2023/11/30 10:17:06;;;;;;;;;;;;;;;;;;;;;
2023/11/30 10:19:34;;;;;;;30.77;8.85;;;8.80;99.90;;;;;;7389130;19;20671;-77
2023/11/30 10:22:03;;;;;;;14.43;8.35;;;8.80;99.90;;;;;;7386243;19;20020;-78
2023/11/30 10:24:32;;;;;;;20.00;9.30;;;8.90;99.90;;;;;;7404658;19;20018;-77
2023/11/30 10:27:02;;;;;;;16.25;8.40;;;8.90;99.90;;;;;;7381375;19;20014;-76
2023/11/30 10:42:50;;;;;;;12.88;6.38;;;9.10;99.90;;;;;;7413533;19;20007;-86
2023/11/30 10:45:18;;;;;;;16.77;6.18;;;9.10;99.90;;;;;;7384036;19;20043;-78
2023/11/30 10:48:30;;;;;;;12.90;6.57;;;9.10;99.90;;;;;;7390420;19;20002;-80
2023/11/30 11:14:41;;;;;;;12.10;6.13;;;9.00;99.90;;;;;;7332527;19;20011;-77
2023/11/30 11:18:02;;;;;;;;;;;;;;;;;;;;;
2023/11/30 11:21:14;;;;;;;11.82;6.10;;;9.10;99.90;;;;;;7386595;19;20070;-81
2023/11/30 11:23:44;;;;;;;13.50;6.35;;;9.20;99.90;;;;;;7384823;19;20239;-76
2023/11/30 11:26:16;;;;;;;15.18;5.95;;;9.30;99.90;;;;;;7391070;19;20231;-76
2023/11/30 11:28:45;;;;;;;15.07;6.72;;;9.40;99.90;;;;;;7392817;19;20514;-76
2023/11/30 11:31:17;;;;;;;19.45;6.63;;;9.40;99.90;;;;;;7391216;19;20018;-77
2023/11/30 11:33:45;;;;;;;13.23;7.10;;;9.50;99.90;;;;;;7408150;19;20019;-76
2023/11/30 11:36:16;;;;;;;12.75;6.80;;;9.60;99.90;;;;;;7382324;19;20003;-77
2023/11/30 11:38:44;;;;;;;10.77;6.33;;;9.70;99.90;;;;;;7380016;19;20282;-75
2023/11/30 11:41:13;;;;;;;16.50;6.43;;;9.70;99.90;;;;;;7379882;19;20003;-75
2023/11/30 11:43:42;;;;;;;12.48;6.88;;;9.80;99.90;;;;;;7379023;19;20730;-74
2023/11/30 11:46:10;;;;;;;14.57;6.88;;;9.80;99.90;;;;;;7379079;19;20020;-75
2023/11/30 11:48:42;;;;;;;11.95;6.72;;;9.80;99.90;;;;;;7400527;19;20242;-76
2023/11/30 11:51:11;;;;;;;15.93;7.35;;;9.90;99.90;;;;;;7379028;19;20238;-76
2023/11/30 11:53:41;;;;;;;15.48;7.18;;;9.90;99.90;;;;;;7381283;19;20009;-74
2023/11/30 11:56:10;;;;;;;13.38;7.03;;;9.90;99.90;;;;;;7379202;19;20002;-74
2023/11/30 11:58:40;;;;;;;19.52;7.30;;;9.90;99.90;;;;;;7381084;19;20003;-74
2023/11/30 12:01:09;;;;;;;13.73;7.22;;;9.90;99.90;;;;;;7381723;19;20096;-74
2023/11/30 12:03:50;;;;;;;21.80;11.82;;;9.90;99.90;;;;;;7404032;19;20014;-73
2023/11/30 12:06:29;;;;;;;17.05;8.88;;;10.00;99.90;;;;;;7378500;19;20009;-73
2023/11/30 12:08:58;;;;;;;17.70;8.02;;;9.90;99.90;;;;;;7379733;19;20007;-74
2023/11/30 12:11:27;;;;;;;18.23;7.22;;;10.00;99.90;;;;;;7381786;19;20028;-76
2023/11/30 12:13:58;;;;;;;16.40;7.85;;;9.90;99.90;;;;;;7383657;19;20006;-75
2023/11/30 12:16:31;;;;;;;15.07;7.85;;;9.90;99.90;;;;;;7388614;19;20018;-78
2023/11/30 12:19:31;;;;;;;19.08;7.53;;;9.90;99.90;;;;;;7386856;19;20342;-79
2023/11/30 12:22:00;;;;;;;18.13;7.68;;;9.90;99.90;;;;;;7378643;19;20361;-77
2023/11/30 12:24:54;;;;;;;15.27;8.13;;;9.90;99.90;;;;;;7406500;19;20035;-79
2023/11/30 12:27:23;;;;;;;13.90;7.47;;;9.90;99.90;;;;;;7384801;19;20062;-77
2023/11/30 12:29:55;;;;;;;18.65;7.63;;;9.90;99.90;;;;;;7384825;19;20299;-79
2023/11/30 12:32:24;;;;;;;15.30;7.32;;;9.90;99.90;;;;;;7388782;19;20078;-78
2023/11/30 12:34:59;;;;;;;25.15;8.57;;;9.90;99.90;;;;;;7384600;19;20013;-78
2023/11/30 12:37:28;;;;;;;26.67;7.72;;;9.80;99.90;;;;;;7387823;19;20027;-79
2023/11/30 12:40:00;;;;;;;23.38;8.07;;;9.80;99.90;;;;;;7387767;19;20353;-79
2023/11/30 12:42:29;;;;;;;38.13;7.82;;;9.80;99.90;;;;;;7410533;19;20047;-79
2023/11/30 12:45:27;;;;;;;13.70;7.95;;;9.80;99.90;;;;;;7397392;19;20019;-80
2023/11/30 13:04:24;;;;;;;11.18;7.03;;;10.00;99.90;;;;;;7424929;19;20481;-79
2023/11/30 13:06:53;;;;;;;15.40;7.40;;;10.00;99.90;;;;;;7428011;19;20030;-78
2023/11/30 13:09:22;;;;;;;13.90;7.25;;;10.10;99.90;;;;;;7446221;19;20022;-78
2023/11/30 13:11:52;;;;;;;15.80;7.80;;;10.10;99.90;;;;;;7425749;19;20023;-77
2023/11/30 13:14:21;;;;;;;15.75;6.88;;;10.20;99.90;;;;;;7421552;19;20294;-77
2023/11/30 13:16:49;;;;;;;15.75;6.45;;;10.20;99.90;;;;;;7423238;19;20006;-78
2023/11/30 13:19:22;;;;;;;23.90;7.55;;;10.20;99.90;;;;;;7427723;19;20002;-77
2023/11/30 13:21:53;;;;;;;15.98;8.07;;;10.30;99.90;;;;;;7450036;19;20010;-78
2023/11/30 13:25:15;;;;;;;15.30;7.45;;;10.30;99.90;;;;;;7426198;19;20022;-80
2023/11/30 13:28:15;;;;;;;16.20;7.10;;;10.30;99.90;;;;;;7427802;19;20370;-79
2023/11/30 13:31:09;;;;;;;16.50;6.95;;;10.30;99.90;;;;;;7422359;19;20401;-81
2023/11/30 13:33:59;;;;;;;14.40;7.32;;;10.30;99.90;;;;;;7423549;19;20234;-80
2023/11/30 13:36:32;;;;;;;13.70;6.80;;;10.20;99.90;;;;;;7434534;19;20014;-79
2023/11/30 13:39:04;;;;;;;14.95;7.28;;;10.20;99.90;;;;;;7431479;19;20036;-77
2023/11/30 13:45:31;;;;;;;19.90;6.80;;;10.20;99.90;;;;;;7461149;19;20585;-82
2023/11/30 13:50:55;;;;;;;14.70;6.30;;;10.20;99.90;;;;;;7441451;19;20078;-82
2023/11/30 14:10:10;;;;;;;11.55;5.75;;;10.10;99.90;;;;;;7422176;19;20282;-79
2023/11/30 14:12:42;;;;;;;24.50;8.98;;;10.10;99.90;;;;;;7448873;19;20367;-78
2023/11/30 14:16:38;;;;;;;17.48;6.88;;;10.10;99.90;;;;;;7424344;19;20010;-80
2023/11/30 14:41:33;;;;;;;13.90;6.25;;;10.10;99.90;;;;;;7427420;19;20616;-76
2023/11/30 14:44:05;;;;;;;9.65;5.90;;;10.00;99.90;;;;;;7423701;19;20011;-81
2023/11/30 14:47:25;;;;;;;13.23;5.47;;;10.00;99.90;;;;;;7422741;19;20003;-82
2023/11/30 14:49:54;;;;;;;8.23;5.05;;;10.00;99.90;;;;;;7440904;19;20010;-80
2023/11/30 14:58:47;;;;;;;10.00;4.20;;;9.90;99.90;;;;;;7445122;19;20254;-76
2023/11/30 15:04:05;;;;;;;6.22;3.55;;;9.80;99.90;;;;;;7420752;19;20010;-78
2023/11/30 15:06:38;;;;;;;9.48;3.10;;;9.70;99.90;;;;;;7443136;19;20010;-78
2023/11/30 15:09:09;;;;;;;10.18;3.30;;;9.70;99.90;;;;;;7426288;19;20014;-79
2023/11/30 15:14:36;;;;;;;8.23;3.42;;;9.70;99.90;;;;;;7424778;19;19931;-79
2023/11/30 15:17:06;;;;;;;5.68;3.28;;;9.70;99.90;;;;;;7424643;19;20010;-79
2023/11/30 15:20:22;;;;;;;6.35;3.53;;;9.70;99.90;;;;;;7422077;19;20078;-81
2023/11/30 15:26:02;;;;;;;11.10;3.50;;;9.70;99.90;;;;;;7424814;19;20043;-76
2023/11/30 15:29:15;;;;;;;10.32;3.63;;;9.80;99.90;;;;;;7424283;19;20528;-81
2023/11/30 15:31:47;;;;;;;6.40;3.30;;;9.70;99.90;;;;;;7423053;19;20019;-79
2023/11/30 15:34:37;;;;;;;7.10;3.72;;;9.80;99.90;;;;;;7420505;19;20075;-81
2023/11/30 15:40:20;;;;;;;8.23;3.75;;;9.70;99.90;;;;;;7439012;19;20010;-79
2023/11/30 15:42:50;;;;;;;8.93;3.88;;;9.70;99.90;;;;;;7459648;19;20002;-78
2023/11/30 15:45:21;;;;;;;14.18;4.18;;;9.80;99.90;;;;;;7439196;19;20010;-80
2023/11/30 15:47:52;;;;;;;19.73;7.55;;;9.70;99.90;;;;;;7434757;19;20006;-78
2023/11/30 15:50:24;;;;;;;19.20;6.35;;;9.70;99.90;;;;;;7422354;19;20002;-79